createdAt,value
2022-08-31T00:03:27.227Z,1.06
2022-08-31T00:15:27.705Z,0.30
2022-08-31T00:27:28.136Z,0.15
2022-08-31T00:39:28.610Z,0.00
2022-08-31T00:51:29.057Z,0.06
2022-08-31T01:03:29.523Z,0.01
2022-08-31T01:15:29.974Z,0.00
2022-08-31T01:27:30.417Z,0.00
2022-08-31T01:39:30.876Z,0.52
2022-08-31T01:51:31.333Z,0.17
2022-08-31T02:03:31.837Z,0.11
2022-08-31T02:15:32.229Z,0.01
2022-08-31T02:27:32.675Z,0.01
2022-08-31T02:39:33.154Z,0.00
2022-08-31T02:51:33.608Z,0.30
2022-08-31T03:03:34.063Z,0.01
2022-08-31T03:15:34.528Z,0.00
2022-08-31T03:27:34.993Z,0.00
2022-08-31T03:39:35.414Z,0.00
2022-08-31T03:51:35.870Z,0.00
2022-08-31T04:03:36.298Z,0.00
2022-08-31T04:15:36.821Z,0.00
2022-08-31T04:27:37.302Z,0.00
2022-08-31T04:39:50.331Z,0.00
2022-08-31T04:51:38.108Z,0.00
2022-08-31T05:03:39.094Z,0.00
2022-08-31T05:15:39.086Z,0.00
2022-08-31T05:27:39.526Z,0.00
2022-08-31T05:39:39.941Z,0.12
2022-08-31T05:51:40.450Z,0.00
2022-08-31T06:03:40.880Z,0.00
2022-08-31T06:15:42.254Z,0.00
2022-08-31T06:27:41.793Z,0.64
2022-08-31T06:39:42.210Z,0.34
2022-08-31T06:51:42.658Z,0.40
2022-08-31T07:03:43.135Z,0.63
2022-08-31T07:15:43.569Z,0.86
2022-08-31T07:27:44.085Z,1.02
2022-08-31T07:39:44.475Z,1.52
2022-08-31T07:51:44.988Z,0.46
2022-08-31T08:03:45.416Z,0.57
2022-08-31T08:15:45.941Z,0.68
2022-08-31T08:27:46.342Z,0.77
2022-08-31T08:39:46.761Z,1.23
2022-08-31T08:51:47.251Z,1.62
2022-08-31T09:03:47.714Z,0.99
2022-08-31T09:15:48.190Z,1.23
2022-08-31T09:27:48.586Z,0.94
2022-08-31T09:39:49.045Z,1.03
2022-08-31T09:51:49.546Z,1.08
2022-08-31T10:03:49.933Z,0.72
2022-08-31T10:15:50.500Z,0.86
2022-08-31T10:27:50.883Z,1.81
2022-08-31T10:39:51.347Z,1.64
2022-08-31T10:51:51.847Z,1.87
2022-08-31T11:03:52.231Z,1.55
2022-08-31T11:15:52.763Z,1.47
2022-08-31T11:27:53.195Z,1.53
2022-08-31T11:39:53.583Z,1.08
2022-08-31T11:51:54.072Z,1.22
2022-08-31T12:03:54.548Z,1.45
2022-08-31T12:15:55.044Z,1.85
2022-08-31T12:27:55.445Z,0.79
2022-08-31T12:39:55.894Z,1.90
2022-08-31T12:51:56.360Z,1.25
2022-08-31T13:03:56.810Z,1.33
2022-08-31T13:15:57.287Z,1.27
2022-08-31T13:27:57.740Z,2.39
2022-08-31T13:39:58.188Z,1.66
2022-08-31T13:51:58.657Z,1.05
2022-08-31T14:03:59.360Z,1.93
2022-08-31T14:15:59.545Z,2.34
2022-08-31T14:28:00.019Z,1.64
2022-08-31T14:40:05.593Z,2.08
2022-08-31T14:52:00.893Z,2.57
2022-08-31T15:04:01.384Z,3.04
2022-08-31T15:16:01.803Z,2.38
2022-08-31T15:28:02.309Z,2.41
2022-08-31T15:40:03.689Z,2.21
2022-08-31T15:52:03.191Z,2.83
2022-08-31T16:04:03.619Z,1.03
2022-08-31T16:16:04.196Z,2.39
2022-08-31T16:28:04.568Z,0.53
2022-08-31T16:40:05.072Z,1.99
2022-08-31T16:52:05.474Z,1.28
2022-08-31T17:04:05.945Z,0.92
2022-08-31T17:16:06.432Z,2.61
2022-08-31T17:28:12.993Z,1.50
2022-08-31T17:40:07.308Z,0.39
2022-08-31T17:52:07.790Z,1.02
2022-08-31T18:04:08.313Z,0.45
2022-08-31T18:16:08.700Z,0.06
2022-08-31T18:28:09.156Z,0.38
2022-08-31T18:40:09.627Z,0.55
2022-08-31T18:52:10.031Z,0.57
2022-08-31T19:04:10.986Z,0.50
2022-08-31T19:16:15.909Z,0.34
2022-08-31T19:28:11.414Z,0.22
2022-08-31T19:40:11.869Z,0.37
2022-08-31T19:52:12.296Z,0.51
2022-08-31T20:04:16.453Z,0.47
2022-08-31T20:16:13.348Z,0.32
2022-08-31T20:28:13.640Z,0.28
2022-08-31T20:40:14.138Z,0.06
2022-08-31T20:52:14.578Z,0.13
2022-08-31T21:04:15.041Z,0.01
2022-08-31T21:16:15.526Z,0.22
2022-08-31T21:28:15.940Z,0.18
2022-08-31T21:40:16.440Z,0.21
2022-08-31T21:52:16.857Z,0.29
2022-08-31T22:04:17.307Z,0.07
2022-08-31T22:16:19.844Z,0.15
2022-08-31T22:28:18.411Z,0.48
2022-08-31T22:40:18.727Z,0.31
2022-08-31T22:52:19.074Z,0.33
2022-08-31T23:04:19.536Z,0.05
2022-08-31T23:16:20.095Z,0.35
2022-08-31T23:28:20.650Z,0.07
2022-08-31T23:40:20.939Z,0.28
2022-08-31T23:52:21.520Z,0.76
